This is the latest recevied weather packets stored in our database for station/object W9LRT-WX. If no packets are shown the sender has not sent any weather packets the latest 10 day(s).
| Time | Temp. | Humidity | Pressure | Rain* | Wind** | Luminosity | Snow |
|---|---|---|---|---|---|---|---|
| 1777860322 | 10.56° C | 81% | 1007.1 hPa | 0 mm | - | 0 W/m² | - |
| 1777859423 | 10.56° C | 83% | 1007.1 hPa | 0 mm | - | 0 W/m² | - |
| 1777858522 | 10.56° C | 83% | 1007.1 hPa | 0 mm | - | 0 W/m² | - |
| 1777857622 | 10.56° C | 82% | 1007.2 hPa | 0 mm | - | 0 W/m² | - |
| 1777856722 | 11.11° C | 82% | 1007.1 hPa | 0 mm | - | 0 W/m² | - |
| 1777855821 | 11.67° C | 82% | 1007.1 hPa | 0 mm | - | 0 W/m² | - |
| 1777854922 | 11.67° C | 81% | 1007.1 hPa | 0 mm | - | 9 W/m² | - |
| 1777854017 | 11.67° C | 79% | 1007.1 hPa | 0 mm | - | 19 W/m² | - |
| 1777853116 | 12.22° C | 78% | 1007.4 hPa | 0 mm | - | 33 W/m² | - |
| 1777852215 | 12.22° C | 78% | 1007.5 hPa | 0 mm | - | 70 W/m² | - |
| 1777851316 | 12.22° C | 77% | 1007.8 hPa | 0 mm | - | 70 W/m² | - |
| 1777850415 | 12.22° C | 77% | 1007.9 hPa | 0 mm | - | 183 W/m² | - |
| 1777849518 | 11.67° C | 78% | 1008.1 hPa | 0 mm | - | 274 W/m² | - |
| 1777848610 | 11.67° C | 76% | 1008.4 hPa | 0 mm | - | 95 W/m² | - |
| 1777847710 | 12.22° C | 73% | 1008.5 hPa | 0 mm | - | 387 W/m² | - |
| 1777846809 | 11.67° C | 75% | 1008.7 hPa | 0 mm | - | 142 W/m² | - |
| 1777845910 | 11.11° C | 76% | 1008.8 hPa | 0 mm | - | 207 W/m² | - |
| 1777845009 | 10.56° C | 78% | 1009 hPa | 0 mm | - | 211 W/m² | - |
| 1777844110 | 10.56° C | 80% | 1009 hPa | 0 mm | - | 315 W/m² | - |
| 1777843209 | 10° C | 82% | 1009.4 hPa | 0 mm | - | 239 W/m² | - |
| 1777842309 | 9.44° C | 82% | 1009.5 hPa | 0 mm | - | 125 W/m² | - |
| 1777841411 | 9.44° C | 83% | 1009.7 hPa | 0 mm | - | 113 W/m² | - |
| 1777840509 | 9.44° C | 82% | 1010 hPa | 0 mm | - | 165 W/m² | - |
| 1777839610 | 9.44° C | 82% | 1010.1 hPa | 0 mm | - | 265 W/m² | - |
| 1777838710 | 9.44° C | 82% | 1010.7 hPa | 0 mm | - | 123 W/m² | - |
* Rain latest hour (hover to see other rain measurements)
** Current wind speed in m/s (hover to see current wind gust speed)